Terminal Aerodrome Forecast
Issued by NWS Twin Cities, MN

Home | Current Version | Previous Version | Text Only | Print | Product List | Glossary Off
Versions: 1 2 3 4 5 6 7 8 9 10 11 12 13 14 15 16 17 18 19 20 21 22 23 24 25 26 27

936
FTUS43 KMPX 250955 AAB
TAFMSP
TAF AMD
KMSP 250955Z 2510/2612 30011KT P6SM SCT018 OVC025
     FM251600 30016G24KT P6SM BKN050
     FM260100 31009KT P6SM FEW050=

USA.gov is the U.S. government's official web portal to all federal, state and local government web resources and services.